AirNav   Free SoundLink Mini II speaker
 
 320 users online  

MO41 Landing Pad
Troy, Missouri, USA

GOING TO TROY?


FAA INFORMATION EFFECTIVE 26 MARCH 2020

Location

FAA Identifier: MO41
Lat/Long: 38-58-55.6700N 090-57-47.1100W
38-58.927833N 090-57.785167W
38.9821306,-90.9630861
(estimated)
Elevation: 520 ft. / 158 m (estimated)
Variation: 01E (1995)
Time zone: UTC -5 (UTC -6 during Standard Time)
Zip code: 63379

Heliport Operations

Heliport use: Private use, MEDICAL USE.
Activation date: 10/1997
Control tower: no
ARTCC: KANSAS CITY CENTER
FSS: SAINT LOUIS FLIGHT SERVICE STATION
Attendance: CONTINUOUS
Wind indicator: yes
Segmented circle: no
Lights: FOR PERIMETER AND FLOOD LGTS CALL 314-528-8551.

Nearby radio navigation aids

VOR radial/distance  VOR name  Freq  Var
FTZr356/17.3FORISTELL VORTAC110.8005E
STLr287/23.6ST LOUIS VORTAC117.4001E

Heliport Services

Runway Information

Helipad H1

Dimensions: 50 x 50 ft. / 15 x 15 m
Surface: concrete
Runway edge lights: PERI
INGROUND GREEN LED LGTS AND FLOOD LGTS.
Latitude: 38-58.927833N
Longitude: 090-57.785167W
Elevation: 520.0 ft.
Traffic pattern: leftleft

Heliport Ownership and Management from official FAA records

Ownership: Privately-owned
Owner: LINCOLN COUNTY MEMORIAL HOSP.
1000 EAST CHERRY STREET
TROY, MO 63379
Phone 314-528-8551
MERCY HOSPITAL LINCOLN LEASES THIS PROPERTY FROM LINCOLN COUNTY MEDICAL CENTER AND IS IN CHARGE OF ALL OPERATIONS.
Manager: MARK THORN
1000 EAST CHERRY STREET
TROY, MO 63379
Phone 314-528-8551

Additional Remarks

OWNER DESIRES HELIPORT NOT BE CHARTED.
FOR CD CTC ST LOUIS APCH AT 314-890-1018.

Instrument Procedures

There are no published instrument procedures at MO41.

Some nearby airports with instrument procedures:

KFYG - Washington Regional Airport (24 nm S)
KSUS - Spirit of St Louis Airport (24 nm SE)
KSET - St Charles County Smartt Airport (25 nm E)
H19 - Bowling Green Municipal Airport (26 nm NW)
1H0 - Creve Coeur Airport (26 nm SE)
 
Loc | Ops | Rwys | IFR | FBO | Links
Com | Nav | Svcs | Stats | Notes

Kansas City Aviation Department
 
Area around MO41 (Landing Pad)
 
Road maps at: MapQuest Bing Google
 
Aerial photo
No photo
 
Sectional chart

 
Airport distance calculator
Flying to Landing Pad? Find the distance to fly.

From to MO41

Sunrise and sunset
Times for 05-Apr-2020
 Local
(UTC-5)
 Zulu
(UTC)
Morning civil twilight06:1511:15
Sunrise06:4211:42
Sunset19:3100:31
Evening civil twilight19:5800:58

Current date and time
Zulu (UTC)  05-Apr-2020 07:29:27
Local (UTC-5)  05-Apr-2020 02:29:27
 
METAR
KFYG 
24nm S 
050715Z AUTO 00000KT 10SM BKN023 BKN032 OVC065 06/04 A3012 RMK AO2
KSUS 
25nm SE 
050654Z AUTO 00000KT 10SM OVC026 06/03 A3012 RMK AO2 SLP202 T00610033
KSET 
25nm E 
050654Z AUTO 00000KT 10SM OVC031 07/03 A3012 RMK AO2 SLP199 T00720033 $
KSTL 
31nm SE 
050651Z 28004KT 10SM BKN026 OVC038 07/03 A3013 RMK AO2 SLP208 T00670033
KPPQ 
40nm N 
050715Z AUTO 00000KT 10SM CLR 03/03 A3013 RMK AO2 T00330029
KMYJ 
41nm W 
050715Z AUTO 00000KT 7SM OVC060 03/02 A3012 RMK AO2
KALN 
44nm E 
050715Z AUTO 00000KT 10SM OVC028 06/05 A3012 RMK AO2 T00630050
KCPS 
45nm SE 
050653Z AUTO 00000KT 10SM OVC024 07/04 A3012 RMK AO2 SLP201 T00670039
TAF
KSUS 
25nm SE 
050520Z 0506/0606 VRB03KT P6SM SCT015 OVC040 TEMPO 0506/0510 BKN015 FM051000 VRB03KT P6SM OVC015 FM051800 00000KT P6SM OVC020 FM052100 VRB03KT P6SM OVC035
NOTAMs
Click for the latest NOTAMs
NOTAMs are issued by the DoD/FAA and will open in a separate window not controlled by AirNav.

 

 
 

Would you like to see your business listed on this page?

 If your business provides an interesting product or service to pilots, flight crews, aircraft, or users of the Landing Pad, you should consider listing it here.  To start the listing process, click on the button below
 
Add a business
 

Other Pages about Landing Pad

Update a link
 
Copyright © AirNav, LLC. All rights reserved. Privacy Policy  Contact